createdAt,value
2018-12-18T00:00:33.264Z,2
2018-12-18T00:01:35.374Z,1.9
2018-12-18T00:02:37.505Z,2
2018-12-18T00:03:40.576Z,2
2018-12-18T00:04:42.694Z,2
2018-12-18T00:05:44.783Z,2
2018-12-18T00:06:46.913Z,2
2018-12-18T00:07:49.024Z,2
2018-12-18T00:08:51.144Z,2
2018-12-18T00:09:57.086Z,2
2018-12-18T00:10:59.210Z,2
2018-12-18T00:12:01.323Z,2
2018-12-18T00:13:03.725Z,2
2018-12-18T00:14:05.843Z,2
2018-12-18T00:15:08.630Z,2
2018-12-18T00:16:11.030Z,2
2018-12-18T00:17:13.128Z,2.1
2018-12-18T00:18:15.237Z,2
2018-12-18T00:19:17.359Z,2
2018-12-18T00:20:19.482Z,2.1
2018-12-18T00:21:21.577Z,2
2018-12-18T00:22:23.753Z,2.1
2018-12-18T00:23:25.877Z,2.1
2018-12-18T00:24:28.284Z,2.1
2018-12-18T00:25:30.410Z,2.1
2018-12-18T00:26:32.499Z,2.1
2018-12-18T00:27:34.610Z,2.1
2018-12-18T00:28:36.735Z,2.1
2018-12-18T00:29:38.857Z,2.1
2018-12-18T00:30:41.073Z,2.1
2018-12-18T00:31:43.292Z,2.1
2018-12-18T00:32:45.770Z,2.1
2018-12-18T00:33:47.919Z,2.1
2018-12-18T00:34:50.138Z,2.1
2018-12-18T00:35:52.235Z,2.1
2018-12-18T00:36:54.349Z,2.1
2018-12-18T00:37:56.451Z,2.1
2018-12-18T00:38:58.960Z,2.1
2018-12-18T00:40:01.063Z,2.1
2018-12-18T00:41:03.465Z,2.1
2018-12-18T00:42:05.865Z,2.1
2018-12-18T00:43:07.962Z,2.1
2018-12-18T00:44:10.099Z,2.1
2018-12-18T00:45:12.215Z,2.1
2018-12-18T00:46:14.334Z,2.1
2018-12-18T00:47:16.443Z,2.1
2018-12-18T00:48:18.597Z,2.1
2018-12-18T00:49:20.712Z,2.2
2018-12-18T00:50:22.808Z,2.2
2018-12-18T00:51:24.918Z,2.2
2018-12-18T00:52:27.344Z,2.2
2018-12-18T00:53:29.464Z,2.2
2018-12-18T00:54:31.911Z,2.2
2018-12-18T00:55:34.032Z,2.2
2018-12-18T00:56:36.132Z,2.2
2018-12-18T00:57:38.234Z,2.2
2018-12-18T00:58:40.360Z,2.2
2018-12-18T00:59:42.831Z,2.2
2018-12-18T01:00:45.238Z,2.2
2018-12-18T01:01:47.348Z,2.2
2018-12-18T01:02:49.508Z,2.2
2018-12-18T01:03:54.096Z,2.2
2018-12-18T01:04:56.222Z,2.2
2018-12-18T01:05:58.343Z,2.2
2018-12-18T01:07:00.451Z,2.2
2018-12-18T01:08:02.585Z,2.2
2018-12-18T01:09:04.698Z,2.3
2018-12-18T01:10:07.115Z,2.2
2018-12-18T01:11:09.221Z,2.2
2018-12-18T01:12:11.351Z,2.2
2018-12-18T01:13:13.528Z,2.3
2018-12-18T01:14:15.635Z,2.3
2018-12-18T01:15:17.757Z,2.3
2018-12-18T01:16:19.865Z,2.3
2018-12-18T01:17:21.986Z,2.3
2018-12-18T01:18:24.096Z,2.3
2018-12-18T01:19:26.198Z,2.3
2018-12-18T01:20:28.310Z,2.3
2018-12-18T01:21:30.435Z,2.3
2018-12-18T01:22:32.542Z,2.3
2018-12-18T01:23:34.951Z,2.3
2018-12-18T01:24:37.068Z,2.3
2018-12-18T01:25:39.190Z,2.3
2018-12-18T01:26:41.302Z,2.4
2018-12-18T01:27:43.398Z,2.4
2018-12-18T01:28:45.529Z,2.4
2018-12-18T01:29:47.644Z,2.4
2018-12-18T01:30:49.746Z,2.4
2018-12-18T01:31:51.869Z,2.4
2018-12-18T01:32:53.971Z,2.4
2018-12-18T01:34:00.494Z,2.4
2018-12-18T01:35:02.622Z,2.5
2018-12-18T01:36:04.748Z,2.5
2018-12-18T01:37:06.861Z,2.5
2018-12-18T01:38:08.987Z,2.5
2018-12-18T01:39:11.484Z,2.5
2018-12-18T01:40:13.649Z,2.5
2018-12-18T01:41:16.156Z,2.5
2018-12-18T01:42:18.545Z,2.5
2018-12-18T01:43:20.666Z,2.5
2018-12-18T01:44:22.767Z,2.5
2018-12-18T01:45:24.894Z,2.5
2018-12-18T01:46:27.000Z,2.6
2018-12-18T01:47:29.409Z,2.5
2018-12-18T01:48:31.528Z,2.6
2018-12-18T01:49:33.620Z,2.6
2018-12-18T01:50:35.747Z,2.6
2018-12-18T01:51:37.856Z,2.6
2018-12-18T01:52:40.270Z,2.6
2018-12-18T01:53:42.388Z,2.6
2018-12-18T01:54:44.516Z,2.7
2018-12-18T01:55:46.901Z,2.7
2018-12-18T01:56:49.020Z,2.7
2018-12-18T01:57:51.133Z,2.7
2018-12-18T01:58:53.238Z,2.7
2018-12-18T01:59:55.354Z,2.7
2018-12-18T02:00:57.466Z,2.7
2018-12-18T02:01:59.603Z,2.7
2018-12-18T02:03:01.715Z,2.7
2018-12-18T02:04:07.266Z,2.7
2018-12-18T02:05:09.389Z,2.7
2018-12-18T02:06:11.479Z,2.8
2018-12-18T02:07:13.590Z,2.8
2018-12-18T02:08:15.703Z,2.8
2018-12-18T02:09:17.824Z,2.8
2018-12-18T02:10:19.917Z,2.8
2018-12-18T02:11:22.045Z,2.8
2018-12-18T02:12:24.160Z,2.8
2018-12-18T02:13:26.262Z,2.8
2018-12-18T02:14:28.405Z,2.9
2018-12-18T02:15:30.506Z,2.9
2018-12-18T02:16:32.622Z,2.9
2018-12-18T02:17:34.729Z,2.9
2018-12-18T02:18:36.886Z,2.9
2018-12-18T02:19:38.983Z,2.9
2018-12-18T02:20:41.387Z,2.9
2018-12-18T02:21:43.558Z,3
2018-12-18T02:22:45.660Z,3
2018-12-18T02:23:47.778Z,3
2018-12-18T02:24:49.890Z,3
2018-12-18T02:25:52.000Z,3
2018-12-18T02:26:54.116Z,3
2018-12-18T02:27:56.250Z,3
2018-12-18T02:28:58.349Z,3.1
2018-12-18T02:30:00.472Z,3.1
2018-12-18T02:31:02.595Z,3.1
2018-12-18T02:32:04.709Z,3.1
2018-12-18T02:33:06.819Z,3.1
2018-12-18T02:34:15.040Z,3.1
2018-12-18T02:35:17.477Z,3.1
2018-12-18T02:36:19.910Z,3.1
2018-12-18T02:37:22.353Z,3.1
2018-12-18T02:38:24.454Z,3.1
2018-12-18T02:39:26.888Z,3.1
2018-12-18T02:40:29.010Z,3.1
2018-12-18T02:41:31.130Z,3.1
2018-12-18T02:42:33.517Z,3.1
2018-12-18T02:43:35.652Z,3.1
2018-12-18T02:44:37.759Z,3.1
2018-12-18T02:45:39.872Z,3.2
2018-12-18T02:46:42.008Z,3.2
2018-12-18T02:47:44.116Z,3.2
2018-12-18T02:48:46.253Z,3.2
2018-12-18T02:49:49.046Z,3.2
2018-12-18T02:50:51.198Z,3.2
2018-12-18T02:51:53.331Z,3.2
2018-12-18T02:52:55.455Z,3.2
2018-12-18T02:53:57.847Z,3.2
2018-12-18T02:54:59.956Z,3.3
2018-12-18T02:56:02.084Z,3.3
2018-12-18T02:57:04.490Z,3.3
2018-12-18T02:58:06.618Z,3.3
2018-12-18T02:59:08.775Z,3.3
2018-12-18T03:00:11.165Z,3.3
2018-12-18T03:01:13.277Z,3.4
2018-12-18T03:02:15.694Z,3.4
2018-12-18T03:03:17.796Z,3.4
2018-12-18T03:04:22.952Z,3.4
2018-12-18T03:05:25.094Z,3.4
2018-12-18T03:06:27.622Z,3.4
2018-12-18T03:07:30.028Z,3.4
2018-12-18T03:08:32.167Z,3.4
2018-12-18T03:09:34.292Z,3.5
2018-12-18T03:10:36.401Z,3.5
2018-12-18T03:11:38.528Z,3.5
2018-12-18T03:12:40.643Z,3.5
2018-12-18T03:13:42.763Z,3.5
2018-12-18T03:14:44.878Z,3.5
2018-12-18T03:15:47.282Z,3.5
2018-12-18T03:16:49.398Z,3.6
2018-12-18T03:17:51.885Z,3.6
2018-12-18T03:18:54.019Z,3.6
2018-12-18T03:19:56.160Z,3.6
2018-12-18T03:20:58.264Z,3.6
2018-12-18T03:22:00.421Z,3.6
2018-12-18T03:23:02.868Z,3.6
2018-12-18T03:24:05.930Z,3.6
2018-12-18T03:25:08.108Z,3.7
2018-12-18T03:26:10.618Z,3.7
2018-12-18T03:27:12.737Z,3.7
2018-12-18T03:28:14.852Z,3.7
2018-12-18T03:29:16.999Z,3.7
2018-12-18T03:30:19.723Z,3.7
2018-12-18T03:31:22.828Z,3.7
2018-12-18T03:32:25.438Z,3.8
2018-12-18T03:33:28.150Z,3.8
2018-12-18T03:34:30.254Z,3.8
2018-12-18T03:35:32.371Z,3.8
2018-12-18T03:36:34.485Z,3.8
2018-12-18T03:37:36.598Z,3.8
2018-12-18T03:38:39.033Z,3.8
2018-12-18T03:39:41.157Z,3.8
2018-12-18T03:40:43.266Z,3.8
2018-12-18T03:41:45.397Z,3.8
2018-12-18T03:42:47.504Z,3.8
2018-12-18T03:43:49.613Z,3.8
2018-12-18T03:44:51.728Z,3.8
2018-12-18T03:45:54.243Z,3.8
2018-12-18T03:46:56.380Z,3.8
2018-12-18T03:47:58.782Z,3.8
2018-12-18T03:49:00.904Z,3.8
2018-12-18T03:50:03.389Z,3.8
2018-12-18T03:51:05.516Z,3.8
2018-12-18T03:52:07.649Z,3.8
2018-12-18T03:53:09.767Z,3.8
2018-12-18T03:54:11.881Z,3.8
2018-12-18T03:55:14.061Z,3.8
2018-12-18T03:56:16.173Z,3.8
2018-12-18T03:57:18.309Z,3.8
2018-12-18T03:58:20.409Z,3.9
2018-12-18T03:59:22.539Z,3.9
2018-12-18T04:00:24.648Z,3.9
2018-12-18T04:01:26.760Z,3.9
2018-12-18T04:02:28.887Z,3.9
2018-12-18T04:03:30.998Z,3.8
2018-12-18T04:04:36.934Z,3.9
2018-12-18T04:05:39.369Z,3.9
2018-12-18T04:06:41.889Z,3.9
2018-12-18T04:07:44.027Z,3.9
2018-12-18T04:08:46.155Z,3.9
2018-12-18T04:09:48.549Z,3.9
2018-12-18T04:10:50.944Z,3.9
2018-12-18T04:11:53.361Z,3.9
2018-12-18T04:12:56.097Z,3.9
2018-12-18T04:13:58.215Z,3.9
2018-12-18T04:15:00.683Z,3.9
2018-12-18T04:16:03.094Z,3.9
2018-12-18T04:17:05.229Z,3.9
2018-12-18T04:18:07.679Z,4
2018-12-18T04:19:09.822Z,4
2018-12-18T04:20:12.283Z,4
2018-12-18T04:21:14.428Z,4
2018-12-18T04:22:16.566Z,4
2018-12-18T04:23:19.049Z,4
2018-12-18T04:24:21.180Z,4
2018-12-18T04:25:23.299Z,4
2018-12-18T04:26:25.795Z,4
2018-12-18T04:27:28.732Z,4
2018-12-18T04:28:31.280Z,4
2018-12-18T04:29:34.077Z,4.1
2018-12-18T04:30:36.198Z,4.1
2018-12-18T04:31:38.331Z,4.1
2018-12-18T04:32:40.722Z,4.1
2018-12-18T04:33:43.230Z,4.2
2018-12-18T04:34:45.738Z,4.2
2018-12-18T04:35:47.873Z,4.2
2018-12-18T04:36:49.982Z,4.2
2018-12-18T04:37:52.096Z,4.2
2018-12-18T04:38:54.310Z,4.2
2018-12-18T04:39:56.437Z,4.2
2018-12-18T04:40:58.556Z,4.2
2018-12-18T04:42:00.684Z,4.2
2018-12-18T04:43:03.084Z,4.2
2018-12-18T04:44:05.216Z,4.2
2018-12-18T04:45:08.223Z,4.2
2018-12-18T04:46:10.347Z,4.2
2018-12-18T04:47:12.464Z,4.2
2018-12-18T04:48:14.609Z,4.3
2018-12-18T04:49:16.715Z,4.3
2018-12-18T04:50:20.822Z,4.3
2018-12-18T04:51:23.786Z,4.3
2018-12-18T04:52:25.890Z,4.4
2018-12-18T04:53:28.019Z,4.4
2018-12-18T04:54:30.149Z,4.4
2018-12-18T04:55:32.567Z,4.4
2018-12-18T04:56:34.659Z,4.4
2018-12-18T04:57:36.798Z,4.4
2018-12-18T04:58:38.920Z,4.4
2018-12-18T04:59:41.029Z,4.4
2018-12-18T05:00:43.176Z,4.4
2018-12-18T05:01:45.582Z,4.4
2018-12-18T05:02:47.999Z,4.4
2018-12-18T05:03:50.103Z,4.4
2018-12-18T05:04:52.514Z,4.5
2018-12-18T05:05:54.628Z,4.5
2018-12-18T05:06:57.059Z,4.5
2018-12-18T05:07:59.196Z,4.5
2018-12-18T05:09:01.299Z,4.5
2018-12-18T05:10:03.435Z,4.5
2018-12-18T05:11:06.135Z,4.5
2018-12-18T05:12:08.933Z,4.5
2018-12-18T05:13:11.329Z,4.5
2018-12-18T05:14:13.733Z,4.5
2018-12-18T05:15:16.235Z,4.5
2018-12-18T05:16:18.365Z,4.5
2018-12-18T05:17:20.488Z,4.5
2018-12-18T05:18:22.592Z,4.6
2018-12-18T05:19:24.706Z,4.6
2018-12-18T05:20:27.224Z,4.6
2018-12-18T05:21:29.347Z,4.6
2018-12-18T05:22:31.468Z,4.6
2018-12-18T05:23:33.873Z,4.6
2018-12-18T05:24:35.985Z,4.6
2018-12-18T05:25:38.135Z,4.6
2018-12-18T05:26:40.300Z,4.6
2018-12-18T05:27:42.422Z,4.7
2018-12-18T05:28:45.205Z,4.7
2018-12-18T05:29:47.336Z,4.7
2018-12-18T05:30:49.456Z,4.7
2018-12-18T05:31:51.591Z,4.7
2018-12-18T05:32:53.777Z,4.7
2018-12-18T05:33:56.164Z,4.8
2018-12-18T05:34:58.293Z,4.7
2018-12-18T05:36:00.691Z,4.7
2018-12-18T05:37:02.815Z,4.7
2018-12-18T05:38:05.216Z,4.8
2018-12-18T05:39:07.627Z,4.7
2018-12-18T05:40:09.749Z,4.7
2018-12-18T05:41:11.856Z,4.8
2018-12-18T05:42:13.989Z,4.8
2018-12-18T05:43:16.087Z,4.8
2018-12-18T05:44:18.250Z,4.8
2018-12-18T05:45:20.656Z,4.8
2018-12-18T05:46:22.774Z,4.8
2018-12-18T05:47:24.877Z,4.8
2018-12-18T05:48:27.000Z,4.8
2018-12-18T05:49:30.843Z,4.8
2018-12-18T05:50:33.039Z,4.8
2018-12-18T05:51:35.138Z,4.8
2018-12-18T05:52:37.547Z,4.8
2018-12-18T05:53:39.668Z,4.8
2018-12-18T05:54:42.050Z,4.8
2018-12-18T05:55:44.170Z,4.8
2018-12-18T05:56:46.299Z,4.8
2018-12-18T05:57:48.960Z,4.8
2018-12-18T05:58:51.096Z,4.8
2018-12-18T05:59:53.207Z,4.8
2018-12-18T06:00:55.321Z,4.8
2018-12-18T06:01:57.431Z,4.8
2018-12-18T06:02:59.560Z,4.8
2018-12-18T06:04:01.667Z,4.8
2018-12-18T06:05:04.813Z,4.8
2018-12-18T06:06:06.942Z,4.8
2018-12-18T06:07:09.103Z,4.8
2018-12-18T06:08:11.233Z,4.8
2018-12-18T06:09:13.405Z,4.8
2018-12-18T06:10:15.535Z,4.8
2018-12-18T06:11:17.641Z,4.8
2018-12-18T06:12:20.041Z,4.8
2018-12-18T06:13:22.433Z,4.8
2018-12-18T06:14:24.553Z,4.8
2018-12-18T06:15:26.691Z,4.8
2018-12-18T06:16:28.795Z,4.8
2018-12-18T06:17:31.303Z,4.8
2018-12-18T06:18:33.423Z,4.8
2018-12-18T06:19:35.925Z,4.8
2018-12-18T06:20:38.026Z,4.8
2018-12-18T06:21:40.143Z,4.8
2018-12-18T06:22:42.260Z,4.8
2018-12-18T06:23:44.387Z,4.8
2018-12-18T06:24:46.512Z,4.8
2018-12-18T06:25:48.631Z,4.8
2018-12-18T06:26:50.736Z,4.8
2018-12-18T06:27:52.867Z,4.8
2018-12-18T06:28:54.972Z,4.8
2018-12-18T06:29:57.089Z,4.9
2018-12-18T06:30:59.905Z,4.8
2018-12-18T06:32:02.680Z,4.9
2018-12-18T06:33:04.815Z,4.9
2018-12-18T06:34:07.217Z,4.9
2018-12-18T06:35:11.657Z,4.9
2018-12-18T06:36:13.764Z,4.9
2018-12-18T06:37:16.204Z,4.9
2018-12-18T06:38:18.358Z,4.9
2018-12-18T06:39:20.462Z,4.9
2018-12-18T06:40:22.591Z,4.9
2018-12-18T06:41:24.701Z,4.9
2018-12-18T06:42:27.200Z,4.9
2018-12-18T06:43:29.591Z,4.9
2018-12-18T06:44:32.784Z,4.9
2018-12-18T06:45:34.882Z,4.9
2018-12-18T06:46:37.000Z,4.9
2018-12-18T06:47:39.161Z,4.9
2018-12-18T06:48:41.261Z,4.9
2018-12-18T06:49:43.383Z,4.9
2018-12-18T06:50:45.496Z,4.9
2018-12-18T06:51:47.597Z,4.9
2018-12-18T06:52:49.709Z,4.9
2018-12-18T06:53:51.845Z,4.9
2018-12-18T06:54:53.955Z,4.9
2018-12-18T06:55:56.079Z,4.9
2018-12-18T06:56:58.201Z,4.9
2018-12-18T06:58:00.307Z,5
2018-12-18T06:59:02.425Z,5
2018-12-18T07:00:04.560Z,5
2018-12-18T07:01:06.669Z,5
2018-12-18T07:02:08.781Z,5
2018-12-18T07:03:10.908Z,5
2018-12-18T07:04:13.026Z,5
2018-12-18T07:05:18.103Z,5
2018-12-18T07:06:20.228Z,5
2018-12-18T07:07:22.356Z,5
2018-12-18T07:08:24.479Z,5
2018-12-18T07:09:26.576Z,5.1
2018-12-18T07:10:28.716Z,5
2018-12-18T07:11:31.219Z,5
2018-12-18T07:12:33.330Z,5
2018-12-18T07:13:35.470Z,5
2018-12-18T07:14:37.573Z,5
2018-12-18T07:15:39.691Z,5
2018-12-18T07:16:41.802Z,5
2018-12-18T07:17:43.930Z,5
2018-12-18T07:18:46.046Z,5
2018-12-18T07:19:48.172Z,5
2018-12-18T07:20:50.287Z,5
2018-12-18T07:21:52.391Z,5
2018-12-18T07:22:54.852Z,5
2018-12-18T07:23:56.978Z,5
2018-12-18T07:24:59.082Z,5
2018-12-18T07:26:01.195Z,5
2018-12-18T07:27:03.608Z,5
2018-12-18T07:28:05.723Z,5
2018-12-18T07:29:08.434Z,5
2018-12-18T07:30:10.600Z,5
2018-12-18T07:31:13.009Z,5
2018-12-18T07:32:15.125Z,5
2018-12-18T07:33:17.257Z,5
2018-12-18T07:34:19.355Z,5
2018-12-18T07:35:24.554Z,5
2018-12-18T07:36:26.685Z,5
2018-12-18T07:37:29.353Z,5
2018-12-18T07:38:31.483Z,4.9
2018-12-18T07:39:33.588Z,4.9
2018-12-18T07:40:35.704Z,5
2018-12-18T07:41:37.812Z,5
2018-12-18T07:42:39.945Z,5
2018-12-18T07:43:42.044Z,5
2018-12-18T07:44:44.163Z,5
2018-12-18T07:45:46.289Z,5
2018-12-18T07:46:48.388Z,5
2018-12-18T07:47:50.788Z,5
2018-12-18T07:48:52.906Z,5
2018-12-18T07:49:55.306Z,5.1
2018-12-18T07:50:57.405Z,5.1
2018-12-18T07:51:59.816Z,5.1
2018-12-18T07:53:02.715Z,5
2018-12-18T07:54:04.822Z,5
2018-12-18T07:55:06.959Z,5.1
2018-12-18T07:56:09.065Z,5
2018-12-18T07:57:11.183Z,5
2018-12-18T07:58:13.310Z,5.1
2018-12-18T07:59:15.815Z,5
2018-12-18T08:00:17.935Z,5
2018-12-18T08:01:20.054Z,5
2018-12-18T08:02:22.157Z,5
2018-12-18T08:03:24.275Z,5
2018-12-18T08:04:26.406Z,5
2018-12-18T08:05:31.134Z,5
2018-12-18T08:06:33.251Z,5.1
2018-12-18T08:07:35.677Z,5.1
2018-12-18T08:08:37.787Z,5.1
2018-12-18T08:09:41.323Z,5
2018-12-18T08:10:43.465Z,5.1
2018-12-18T08:11:45.955Z,5
2018-12-18T08:12:48.377Z,5
2018-12-18T08:13:50.514Z,5.1
2018-12-18T08:14:52.641Z,5.1
2018-12-18T08:15:54.747Z,5.1
2018-12-18T08:16:56.872Z,5.1
2018-12-18T08:17:59.272Z,5
2018-12-18T08:19:01.763Z,5.1
2018-12-18T08:20:03.885Z,5.1
2018-12-18T08:21:06.014Z,5.1
2018-12-18T08:22:08.142Z,5.1
2018-12-18T08:23:10.261Z,5.1
2018-12-18T08:24:12.367Z,5.1
2018-12-18T08:25:14.524Z,5.1
2018-12-18T08:26:16.634Z,5.1
2018-12-18T08:27:18.738Z,5.1
2018-12-18T08:28:20.864Z,5.1
2018-12-18T08:29:22.962Z,5.1
2018-12-18T08:30:25.081Z,5.1
2018-12-18T08:31:27.782Z,5.1
2018-12-18T08:32:30.285Z,5.1
2018-12-18T08:33:32.404Z,5.1
2018-12-18T08:34:34.529Z,5.1
2018-12-18T08:35:37.737Z,5.1
2018-12-18T08:36:39.858Z,5.1
2018-12-18T08:37:41.999Z,5.1
2018-12-18T08:38:44.502Z,5.2
2018-12-18T08:39:46.637Z,5.1
2018-12-18T08:40:48.778Z,5.2
2018-12-18T08:41:50.887Z,5.2
2018-12-18T08:42:53.399Z,5.2
2018-12-18T08:43:55.521Z,5.3
2018-12-18T08:44:57.658Z,5.3
2018-12-18T08:45:59.777Z,5.3
2018-12-18T08:47:01.913Z,5.3
2018-12-18T08:48:04.041Z,5.4
2018-12-18T08:49:06.144Z,5.4
2018-12-18T08:50:08.568Z,5.4
2018-12-18T08:51:10.688Z,5.4
2018-12-18T08:52:12.786Z,5.5
2018-12-18T08:53:14.911Z,5.5
2018-12-18T08:54:17.317Z,5.5
2018-12-18T08:55:19.431Z,5.5
2018-12-18T08:56:22.109Z,5.5
2018-12-18T08:57:24.240Z,5.6
2018-12-18T08:58:26.347Z,5.6
2018-12-18T08:59:28.466Z,5.6
2018-12-18T09:00:30.590Z,5.6
2018-12-18T09:01:32.720Z,5.6
2018-12-18T09:02:35.209Z,5.5
2018-12-18T09:03:37.324Z,5.5
2018-12-18T09:04:39.448Z,5.6
2018-12-18T09:05:44.484Z,5.6
2018-12-18T09:06:46.592Z,5.6
2018-12-18T09:07:48.713Z,5.6
2018-12-18T09:08:50.814Z,5.5
2018-12-18T09:09:53.220Z,5.5
2018-12-18T09:10:55.367Z,5.5
2018-12-18T09:11:58.048Z,5.5
2018-12-18T09:13:00.223Z,5.5
2018-12-18T09:14:02.374Z,5.5
2018-12-18T09:15:04.885Z,5.4
2018-12-18T09:16:06.990Z,5.4
2018-12-18T09:17:09.118Z,5.4
2018-12-18T09:18:11.222Z,5.4
2018-12-18T09:19:13.343Z,5.5
2018-12-18T09:20:15.739Z,5.5
2018-12-18T09:21:17.867Z,5.4
2018-12-18T09:22:19.971Z,5.4
2018-12-18T09:23:22.769Z,5.4
2018-12-18T09:24:24.890Z,5.4
2018-12-18T09:25:26.995Z,5.4
2018-12-18T09:26:29.129Z,5.3
2018-12-18T09:27:31.247Z,5.4
2018-12-18T09:28:33.364Z,5.4
2018-12-18T09:29:35.476Z,5.4
2018-12-18T09:30:43.862Z,5.4
2018-12-18T09:31:45.970Z,5.4
2018-12-18T09:32:48.093Z,5.4
2018-12-18T09:33:50.219Z,5.3
2018-12-18T09:34:52.328Z,5.3
2018-12-18T09:35:54.459Z,5.4
2018-12-18T09:36:56.978Z,5.4
2018-12-18T09:37:59.490Z,5.4
2018-12-18T09:39:01.895Z,5.4
2018-12-18T09:40:03.997Z,5.4
2018-12-18T09:41:06.113Z,5.4
2018-12-18T09:42:08.502Z,5.4
2018-12-18T09:43:10.614Z,5.4
2018-12-18T09:44:12.748Z,5.4
2018-12-18T09:45:15.166Z,5.4
2018-12-18T09:46:17.278Z,5.4
2018-12-18T09:47:19.407Z,5.4
2018-12-18T09:48:21.520Z,5.5
2018-12-18T09:49:23.936Z,5.5
2018-12-18T09:50:26.065Z,5.5
2018-12-18T09:51:28.167Z,5.5
2018-12-18T09:52:30.287Z,5.5
2018-12-18T09:53:32.406Z,5.5
2018-12-18T09:54:34.541Z,5.5
2018-12-18T09:55:36.643Z,5.6
2018-12-18T09:56:38.768Z,5.6
2018-12-18T09:57:40.883Z,5.6
2018-12-18T09:58:42.994Z,5.6
2018-12-18T09:59:45.129Z,5.6
2018-12-18T10:00:47.229Z,5.6
2018-12-18T10:01:49.345Z,5.6
2018-12-18T10:02:52.319Z,5.6
2018-12-18T10:03:54.498Z,5.6
2018-12-18T10:04:56.615Z,5.6
2018-12-18T10:05:59.034Z,5.6
2018-12-18T10:07:01.168Z,5.6
2018-12-18T10:08:03.267Z,5.6
2018-12-18T10:09:11.182Z,5.6
2018-12-18T10:10:13.305Z,5.6
2018-12-18T10:11:15.819Z,5.6
2018-12-18T10:12:17.948Z,5.8
2018-12-18T10:13:20.079Z,5.7
2018-12-18T10:14:22.201Z,5.7
2018-12-18T10:15:24.725Z,5.7
2018-12-18T10:16:26.847Z,5.7
2018-12-18T10:17:28.955Z,5.7
2018-12-18T10:18:31.079Z,5.7
2018-12-18T10:19:33.202Z,5.7
2018-12-18T10:20:35.302Z,5.7
2018-12-18T10:21:37.425Z,5.6
2018-12-18T10:22:39.934Z,5.7
2018-12-18T10:23:42.039Z,5.7
2018-12-18T10:24:44.178Z,5.7
2018-12-18T10:25:46.977Z,5.7
2018-12-18T10:26:49.099Z,5.7
2018-12-18T10:27:51.202Z,5.7
2018-12-18T10:28:53.338Z,5.8
2018-12-18T10:29:55.447Z,5.7
2018-12-18T10:30:57.574Z,5.7
2018-12-18T10:31:59.696Z,5.7
2018-12-18T10:33:01.798Z,5.7
2018-12-18T10:34:03.922Z,5.7
2018-12-18T10:35:06.039Z,5.7
2018-12-18T10:36:08.459Z,5.7
2018-12-18T10:37:10.861Z,5.7
2018-12-18T10:38:13.279Z,5.7
2018-12-18T10:39:15.398Z,5.8
2018-12-18T10:40:17.808Z,5.7
2018-12-18T10:41:19.947Z,5.7
2018-12-18T10:42:22.059Z,5.7
2018-12-18T10:43:24.190Z,5.7
2018-12-18T10:44:26.321Z,5.8
2018-12-18T10:45:28.443Z,5.7
2018-12-18T10:46:30.553Z,5.7
2018-12-18T10:47:32.675Z,5.7
2018-12-18T10:48:34.792Z,5.7
2018-12-18T10:49:36.919Z,5.7
2018-12-18T10:50:39.333Z,5.7
2018-12-18T10:51:41.460Z,5.7
2018-12-18T10:52:43.592Z,5.7
2018-12-18T10:53:45.690Z,5.7
2018-12-18T10:54:47.823Z,5.7
2018-12-18T10:55:49.959Z,5.7
2018-12-18T10:56:52.079Z,5.7
2018-12-18T10:57:54.214Z,5.8
2018-12-18T10:58:56.323Z,5.7
2018-12-18T10:59:58.445Z,5.7
2018-12-18T11:01:00.937Z,5.8
2018-12-18T11:02:03.074Z,5.8
2018-12-18T11:03:05.187Z,5.8
2018-12-18T11:04:07.309Z,5.8
2018-12-18T11:05:09.442Z,5.8
2018-12-18T11:06:11.549Z,5.8
2018-12-18T11:07:13.685Z,5.8
2018-12-18T11:08:15.823Z,5.8
2018-12-18T11:09:18.230Z,5.8
2018-12-18T11:10:20.322Z,5.8
2018-12-18T11:11:22.444Z,5.8
2018-12-18T11:12:24.865Z,5.8
2018-12-18T11:13:27.682Z,5.8
2018-12-18T11:14:29.816Z,5.9
2018-12-18T11:15:31.919Z,5.9
2018-12-18T11:16:38.585Z,5.8
2018-12-18T11:17:40.720Z,5.9
2018-12-18T11:18:42.842Z,5.9
2018-12-18T11:19:44.957Z,5.9
2018-12-18T11:20:47.381Z,5.9
2018-12-18T11:21:49.496Z,5.9
2018-12-18T11:22:51.617Z,5.9
2018-12-18T11:23:53.744Z,5.9
2018-12-18T11:24:55.867Z,6
2018-12-18T11:25:57.972Z,6
2018-12-18T11:27:00.177Z,6.1
2018-12-18T11:28:02.598Z,6.1
2018-12-18T11:29:05.025Z,6
2018-12-18T11:30:07.156Z,5.9
2018-12-18T11:31:09.594Z,5.9
2018-12-18T11:32:11.713Z,5.9
2018-12-18T11:33:13.833Z,6
2018-12-18T11:34:15.937Z,6
2018-12-18T11:35:18.074Z,6
2018-12-18T11:36:20.460Z,5.9
2018-12-18T11:37:22.572Z,6
2018-12-18T11:38:24.704Z,6.1
2018-12-18T11:39:26.812Z,6
2018-12-18T11:40:28.936Z,6.1
2018-12-18T11:41:31.052Z,6.1
2018-12-18T11:42:33.562Z,6.1
2018-12-18T11:43:35.665Z,6.2
2018-12-18T11:44:37.791Z,6.1
2018-12-18T11:45:39.909Z,6.2
2018-12-18T11:46:42.420Z,6.2
2018-12-18T11:47:44.862Z,6.2
2018-12-18T11:48:46.966Z,6.3
2018-12-18T11:49:49.086Z,6.3
2018-12-18T11:50:51.499Z,6.3
2018-12-18T11:51:53.612Z,6.3
2018-12-18T11:52:55.717Z,6.3
2018-12-18T11:53:57.850Z,6.3
2018-12-18T11:54:59.966Z,6.2
2018-12-18T11:56:02.085Z,6.3
2018-12-18T11:57:04.221Z,6.3
2018-12-18T11:58:06.345Z,6.3
2018-12-18T11:59:08.743Z,6.3
2018-12-18T12:00:11.161Z,6.4
2018-12-18T12:01:13.332Z,6.4
2018-12-18T12:02:15.422Z,6.4
2018-12-18T12:03:17.562Z,6.3
2018-12-18T12:04:19.632Z,6.4
2018-12-18T12:05:21.722Z,6.4
2018-12-18T12:06:24.335Z,6.3
2018-12-18T12:07:26.434Z,6.3
2018-12-18T12:08:28.517Z,6.3
2018-12-18T12:09:30.982Z,6.4
2018-12-18T12:10:33.093Z,6.4
2018-12-18T12:11:35.191Z,6.4
2018-12-18T12:12:37.269Z,6.4
2018-12-18T12:13:39.357Z,6.4
2018-12-18T12:14:41.437Z,6.4
2018-12-18T12:15:43.526Z,6.4
2018-12-18T12:16:45.586Z,6.4
2018-12-18T12:17:47.960Z,6.4
2018-12-18T12:18:50.041Z,6.4
2018-12-18T12:19:52.395Z,6.4
2018-12-18T12:20:54.556Z,6.3
2018-12-18T12:21:56.661Z,6.4
2018-12-18T12:22:58.781Z,6.3
2018-12-18T12:24:00.931Z,6.3
2018-12-18T12:25:03.023Z,6.3
2018-12-18T12:26:05.088Z,6.3
2018-12-18T12:27:07.182Z,6.3
2018-12-18T12:28:09.262Z,6.3
2018-12-18T12:29:11.362Z,6.2
2018-12-18T12:30:13.455Z,6.3
2018-12-18T12:31:15.540Z,6.3
2018-12-18T12:32:17.612Z,6.3
2018-12-18T12:33:19.721Z,6.3
2018-12-18T12:34:22.095Z,6.3
2018-12-18T12:35:24.178Z,6.3
2018-12-18T12:36:31.204Z,6.3
2018-12-18T12:37:33.566Z,6.2
2018-12-18T12:38:35.962Z,6.3
2018-12-18T12:39:38.051Z,6.3
2018-12-18T12:40:40.150Z,6.2
2018-12-18T12:41:42.501Z,6.2
2018-12-18T12:42:44.597Z,6.3
2018-12-18T12:43:46.670Z,6.2
2018-12-18T12:44:48.739Z,6.3
2018-12-18T12:45:50.833Z,6.2
2018-12-18T12:46:53.201Z,6.2
2018-12-18T12:47:55.301Z,6.2
2018-12-18T12:48:57.378Z,6.2
2018-12-18T12:49:59.488Z,6.2
2018-12-18T12:51:01.566Z,6.3
2018-12-18T12:52:03.955Z,6.3
2018-12-18T12:53:06.048Z,6.3
2018-12-18T12:54:08.120Z,6.2
2018-12-18T12:55:10.227Z,6.3
2018-12-18T12:56:12.307Z,6.2
2018-12-18T12:57:14.389Z,6.3
2018-12-18T12:58:16.479Z,6.2
2018-12-18T12:59:18.564Z,6.2
2018-12-18T13:00:20.642Z,6.2
2018-12-18T13:01:22.740Z,6.2
2018-12-18T13:02:24.915Z,6.2
2018-12-18T13:03:26.997Z,6.2
2018-12-18T13:04:29.100Z,6.2
2018-12-18T13:05:31.191Z,6.2
2018-12-18T13:06:37.904Z,6.2
2018-12-18T13:07:40.000Z,6.2
2018-12-18T13:08:42.106Z,6.2
2018-12-18T13:09:44.458Z,6.2
2018-12-18T13:10:46.566Z,6.2
2018-12-18T13:11:48.930Z,6.2
2018-12-18T13:12:51.295Z,6.2
2018-12-18T13:13:53.375Z,6.2
2018-12-18T13:14:55.764Z,6.2
2018-12-18T13:15:58.127Z,6.2
2018-12-18T13:17:00.272Z,6.1
2018-12-18T13:18:02.668Z,6.1
2018-12-18T13:19:04.752Z,6.1
2018-12-18T13:20:07.147Z,6.1
2018-12-18T13:21:09.235Z,6.1
2018-12-18T13:22:11.319Z,6
2018-12-18T13:23:13.395Z,6.1
2018-12-18T13:24:15.491Z,6.1
2018-12-18T13:25:17.584Z,6.1
2018-12-18T13:26:20.072Z,6.1
2018-12-18T13:27:22.146Z,6.1
2018-12-18T13:28:24.245Z,6.1
2018-12-18T13:29:26.354Z,6.1
2018-12-18T13:30:28.433Z,6.1
2018-12-18T13:31:30.517Z,6.1
2018-12-18T13:32:32.615Z,6.1
2018-12-18T13:33:35.223Z,6.1
2018-12-18T13:34:37.455Z,6.1
2018-12-18T13:35:39.539Z,6.1
2018-12-18T13:36:44.375Z,6.1
2018-12-18T13:37:46.462Z,6.1
2018-12-18T13:38:48.567Z,6.1
2018-12-18T13:39:50.639Z,6
2018-12-18T13:40:52.732Z,6
2018-12-18T13:41:54.823Z,6
2018-12-18T13:42:56.895Z,6
2018-12-18T13:43:59.052Z,6
2018-12-18T13:45:01.132Z,6
2018-12-18T13:46:03.614Z,6
2018-12-18T13:47:05.985Z,6
2018-12-18T13:48:08.085Z,6
2018-12-18T13:49:10.160Z,6
2018-12-18T13:50:12.523Z,6
2018-12-18T13:51:14.905Z,6
2018-12-18T13:52:16.980Z,6
2018-12-18T13:53:19.078Z,6
2018-12-18T13:54:21.168Z,6
2018-12-18T13:55:23.253Z,5.9
2018-12-18T13:56:25.323Z,5.9
2018-12-18T13:57:27.413Z,6
2018-12-18T13:58:29.494Z,6
2018-12-18T13:59:31.572Z,6
2018-12-18T14:00:33.660Z,5.9
2018-12-18T14:01:35.734Z,5.9
2018-12-18T14:02:37.814Z,5.9
2018-12-18T14:03:39.881Z,6
2018-12-18T14:04:41.956Z,5.9
2018-12-18T14:05:44.064Z,5.9
2018-12-18T14:06:50.951Z,5.9
2018-12-18T14:07:53.052Z,5.9
2018-12-18T14:08:55.142Z,5.9
2018-12-18T14:09:57.213Z,5.9
2018-12-18T14:10:59.308Z,5.9
2018-12-18T14:12:01.413Z,5.9
2018-12-18T14:13:06.772Z,5.9
2018-12-18T14:14:09.247Z,5.9
2018-12-18T14:15:11.326Z,5.9
2018-12-18T14:16:13.402Z,5.9
2018-12-18T14:17:15.502Z,5.9
2018-12-18T14:18:18.251Z,5.9
2018-12-18T14:19:20.335Z,5.9
2018-12-18T14:20:22.791Z,5.9
2018-12-18T14:21:24.902Z,5.9
2018-12-18T14:22:28.666Z,5.9
2018-12-18T14:23:34.370Z,5.8
2018-12-18T14:24:40.505Z,5.8
2018-12-18T14:25:45.415Z,5.8
2018-12-18T14:26:52.052Z,5.8